sensor_id;sensor_type;location;lat;lon;timestamp;temperature;humidity
33943;DHT22;66763;47.856;17.462;2023-04-24T00:00:03;19.20;45.60
33943;DHT22;66763;47.856;17.462;2023-04-24T00:02:34;19.20;45.60
33943;DHT22;66763;47.856;17.462;2023-04-24T00:04:59;19.20;45.70
33943;DHT22;66763;47.856;17.462;2023-04-24T00:07:28;19.20;45.60
33943;DHT22;66763;47.856;17.462;2023-04-24T00:09:53;19.20;45.60
33943;DHT22;66763;47.856;17.462;2023-04-24T00:12:19;19.20;45.70
33943;DHT22;66763;47.856;17.462;2023-04-24T00:14:45;19.30;45.70
33943;DHT22;66763;47.856;17.462;2023-04-24T00:17:10;19.20;45.60
33943;DHT22;66763;47.856;17.462;2023-04-24T00:19:36;19.20;45.60
33943;DHT22;66763;47.856;17.462;2023-04-24T00:22:01;19.20;45.60
33943;DHT22;66763;47.856;17.462;2023-04-24T00:24:27;19.20;45.60
33943;DHT22;66763;47.856;17.462;2023-04-24T00:26:53;19.20;45.70
33943;DHT22;66763;47.856;17.462;2023-04-24T00:29:18;19.20;45.60
33943;DHT22;66763;47.856;17.462;2023-04-24T00:31:44;19.20;45.60
33943;DHT22;66763;47.856;17.462;2023-04-24T00:34:09;19.20;45.60
33943;DHT22;66763;47.856;17.462;2023-04-24T00:36:37;19.30;45.70
33943;DHT22;66763;47.856;17.462;2023-04-24T00:39:02;19.30;45.70
33943;DHT22;66763;47.856;17.462;2023-04-24T00:41:28;19.20;45.60
33943;DHT22;66763;47.856;17.462;2023-04-24T00:43:53;19.20;45.70
33943;DHT22;66763;47.856;17.462;2023-04-24T00:46:19;19.20;45.60
33943;DHT22;66763;47.856;17.462;2023-04-24T00:48:44;19.20;45.60
33943;DHT22;66763;47.856;17.462;2023-04-24T00:51:10;19.20;45.70
33943;DHT22;66763;47.856;17.462;2023-04-24T00:53:35;19.20;45.70
33943;DHT22;66763;47.856;17.462;2023-04-24T00:56:01;19.20;45.70
33943;DHT22;66763;47.856;17.462;2023-04-24T00:58:27;19.20;45.70
33943;DHT22;66763;47.856;17.462;2023-04-24T01:00:54;19.20;45.70
33943;DHT22;66763;47.856;17.462;2023-04-24T01:03:25;19.20;45.80
33943;DHT22;66763;47.856;17.462;2023-04-24T01:05:52;19.20;45.70
33943;DHT22;66763;47.856;17.462;2023-04-24T01:08:17;19.20;45.70
33943;DHT22;66763;47.856;17.462;2023-04-24T01:10:44;19.20;45.70
33943;DHT22;66763;47.856;17.462;2023-04-24T01:13:10;19.20;45.70
33943;DHT22;66763;47.856;17.462;2023-04-24T01:15:35;19.20;45.80
33943;DHT22;66763;47.856;17.462;2023-04-24T01:18:01;19.20;45.70
33943;DHT22;66763;47.856;17.462;2023-04-24T01:20:26;19.20;45.70
33943;DHT22;66763;47.856;17.462;2023-04-24T01:22:54;19.20;45.70
33943;DHT22;66763;47.856;17.462;2023-04-24T01:25:20;19.20;45.70
33943;DHT22;66763;47.856;17.462;2023-04-24T01:27:45;19.20;45.70
33943;DHT22;66763;47.856;17.462;2023-04-24T01:30:11;19.20;45.70
33943;DHT22;66763;47.856;17.462;2023-04-24T01:32:37;19.20;45.80
33943;DHT22;66763;47.856;17.462;2023-04-24T01:35:03;19.20;45.60
33943;DHT22;66763;47.856;17.462;2023-04-24T01:37:28;19.20;45.70
33943;DHT22;66763;47.856;17.462;2023-04-24T01:39:54;19.20;45.70
33943;DHT22;66763;47.856;17.462;2023-04-24T01:42:20;19.20;45.70
33943;DHT22;66763;47.856;17.462;2023-04-24T01:44:45;19.20;45.60
33943;DHT22;66763;47.856;17.462;2023-04-24T01:47:11;19.20;45.70
33943;DHT22;66763;47.856;17.462;2023-04-24T01:49:37;19.20;45.70
33943;DHT22;66763;47.856;17.462;2023-04-24T01:52:03;19.20;45.60
33943;DHT22;66763;47.856;17.462;2023-04-24T01:54:29;19.20;45.60
33943;DHT22;66763;47.856;17.462;2023-04-24T01:56:55;19.20;45.70
33943;DHT22;66763;47.856;17.462;2023-04-24T01:59:21;19.20;46.30
33943;DHT22;66763;47.856;17.462;2023-04-24T02:01:46;19.20;45.60
33943;DHT22;66763;47.856;17.462;2023-04-24T02:04:12;19.20;45.70
33943;DHT22;66763;47.856;17.462;2023-04-24T02:06:38;19.20;45.60
33943;DHT22;66763;47.856;17.462;2023-04-24T02:09:04;19.20;45.60
33943;DHT22;66763;47.856;17.462;2023-04-24T02:11:30;19.20;45.70
33943;DHT22;66763;47.856;17.462;2023-04-24T02:13:55;19.20;45.70
33943;DHT22;66763;47.856;17.462;2023-04-24T02:16:21;19.20;45.70
33943;DHT22;66763;47.856;17.462;2023-04-24T02:18:46;19.20;45.70
33943;DHT22;66763;47.856;17.462;2023-04-24T02:21:12;19.20;45.60
33943;DHT22;66763;47.856;17.462;2023-04-24T02:23:37;19.20;45.60
33943;DHT22;66763;47.856;17.462;2023-04-24T02:26:02;19.20;45.60
33943;DHT22;66763;47.856;17.462;2023-04-24T02:28:28;19.20;45.60
33943;DHT22;66763;47.856;17.462;2023-04-24T02:30:53;19.20;45.70
33943;DHT22;66763;47.856;17.462;2023-04-24T02:33:19;19.20;45.60
33943;DHT22;66763;47.856;17.462;2023-04-24T02:35:45;19.20;45.60
33943;DHT22;66763;47.856;17.462;2023-04-24T02:38:10;19.20;45.60
33943;DHT22;66763;47.856;17.462;2023-04-24T02:40:36;19.20;45.60
33943;DHT22;66763;47.856;17.462;2023-04-24T02:43:01;19.20;45.60
33943;DHT22;66763;47.856;17.462;2023-04-24T02:45:26;19.20;45.50
33943;DHT22;66763;47.856;17.462;2023-04-24T02:47:52;19.20;45.50
33943;DHT22;66763;47.856;17.462;2023-04-24T02:50:17;19.20;45.50
33943;DHT22;66763;47.856;17.462;2023-04-24T02:52:43;19.20;45.50
33943;DHT22;66763;47.856;17.462;2023-04-24T02:55:09;19.20;45.60
33943;DHT22;66763;47.856;17.462;2023-04-24T02:57:34;19.20;45.60
33943;DHT22;66763;47.856;17.462;2023-04-24T03:00:00;19.20;45.60
33943;DHT22;66763;47.856;17.462;2023-04-24T03:02:25;19.20;45.70
33943;DHT22;66763;47.856;17.462;2023-04-24T03:04:51;19.10;45.60
33943;DHT22;66763;47.856;17.462;2023-04-24T03:07:16;19.20;45.70
33943;DHT22;66763;47.856;17.462;2023-04-24T03:09:42;19.20;45.70
33943;DHT22;66763;47.856;17.462;2023-04-24T03:12:07;19.20;45.70
33943;DHT22;66763;47.856;17.462;2023-04-24T03:14:33;19.20;45.60
33943;DHT22;66763;47.856;17.462;2023-04-24T03:16:58;19.20;45.70
33943;DHT22;66763;47.856;17.462;2023-04-24T03:19:24;19.20;45.70
33943;DHT22;66763;47.856;17.462;2023-04-24T03:21:49;19.20;45.70
33943;DHT22;66763;47.856;17.462;2023-04-24T03:24:15;19.20;45.60
33943;DHT22;66763;47.856;17.462;2023-04-24T03:26:40;19.20;45.70
33943;DHT22;66763;47.856;17.462;2023-04-24T03:29:06;19.20;45.60
33943;DHT22;66763;47.856;17.462;2023-04-24T03:31:31;19.20;45.60
33943;DHT22;66763;47.856;17.462;2023-04-24T03:33:57;19.20;45.60
33943;DHT22;66763;47.856;17.462;2023-04-24T03:36:22;19.20;45.60
33943;DHT22;66763;47.856;17.462;2023-04-24T03:38:48;19.20;45.60
33943;DHT22;66763;47.856;17.462;2023-04-24T03:41:13;19.20;45.60
33943;DHT22;66763;47.856;17.462;2023-04-24T03:43:39;19.20;45.60
33943;DHT22;66763;47.856;17.462;2023-04-24T03:46:05;19.20;45.60
33943;DHT22;66763;47.856;17.462;2023-04-24T03:48:30;19.20;45.60
33943;DHT22;66763;47.856;17.462;2023-04-24T03:50:56;19.20;45.60
33943;DHT22;66763;47.856;17.462;2023-04-24T03:53:21;19.20;45.60
33943;DHT22;66763;47.856;17.462;2023-04-24T03:55:47;19.20;45.60
33943;DHT22;66763;47.856;17.462;2023-04-24T03:58:12;19.20;45.60
33943;DHT22;66763;47.856;17.462;2023-04-24T04:00:39;19.20;45.60
33943;DHT22;66763;47.856;17.462;2023-04-24T04:03:05;19.20;45.60
33943;DHT22;66763;47.856;17.462;2023-04-24T04:05:31;19.20;45.60
33943;DHT22;66763;47.856;17.462;2023-04-24T04:07:56;19.20;45.60
33943;DHT22;66763;47.856;17.462;2023-04-24T04:10:22;19.20;46.20
33943;DHT22;66763;47.856;17.462;2023-04-24T04:12:47;19.20;45.60
33943;DHT22;66763;47.856;17.462;2023-04-24T04:15:13;19.20;45.60
33943;DHT22;66763;47.856;17.462;2023-04-24T04:17:38;19.20;45.60
33943;DHT22;66763;47.856;17.462;2023-04-24T04:20:04;19.20;45.60
33943;DHT22;66763;47.856;17.462;2023-04-24T04:22:35;19.20;45.50
33943;DHT22;66763;47.856;17.462;2023-04-24T04:25:01;19.20;45.60
33943;DHT22;66763;47.856;17.462;2023-04-24T04:27:26;19.20;45.60
33943;DHT22;66763;47.856;17.462;2023-04-24T04:29:53;19.20;45.60
33943;DHT22;66763;47.856;17.462;2023-04-24T04:32:19;19.20;45.60
33943;DHT22;66763;47.856;17.462;2023-04-24T04:34:44;19.20;45.60
33943;DHT22;66763;47.856;17.462;2023-04-24T04:37:10;19.20;45.60
33943;DHT22;66763;47.856;17.462;2023-04-24T04:39:37;19.20;45.60
33943;DHT22;66763;47.856;17.462;2023-04-24T04:42:03;19.20;45.70
33943;DHT22;66763;47.856;17.462;2023-04-24T04:44:29;19.20;46.20
33943;DHT22;66763;47.856;17.462;2023-04-24T04:46:55;19.20;45.60
33943;DHT22;66763;47.856;17.462;2023-04-24T04:49:21;19.20;45.70
33943;DHT22;66763;47.856;17.462;2023-04-24T04:51:49;19.20;45.60
33943;DHT22;66763;47.856;17.462;2023-04-24T04:54:16;19.20;45.70
33943;DHT22;66763;47.856;17.462;2023-04-24T04:56:41;19.20;45.60
33943;DHT22;66763;47.856;17.462;2023-04-24T04:59:07;19.20;45.60
33943;DHT22;66763;47.856;17.462;2023-04-24T05:01:32;19.20;45.60
33943;DHT22;66763;47.856;17.462;2023-04-24T05:03:58;19.20;45.60
33943;DHT22;66763;47.856;17.462;2023-04-24T05:06:23;19.20;45.60
33943;DHT22;66763;47.856;17.462;2023-04-24T05:08:49;19.20;45.60
33943;DHT22;66763;47.856;17.462;2023-04-24T05:11:15;19.20;45.70
33943;DHT22;66763;47.856;17.462;2023-04-24T05:13:40;19.10;45.50
33943;DHT22;66763;47.856;17.462;2023-04-24T05:16:06;19.20;45.60
33943;DHT22;66763;47.856;17.462;2023-04-24T05:18:31;19.20;45.60
33943;DHT22;66763;47.856;17.462;2023-04-24T05:20:57;19.20;45.60
33943;DHT22;66763;47.856;17.462;2023-04-24T05:23:22;19.20;45.60
33943;DHT22;66763;47.856;17.462;2023-04-24T05:25:48;19.20;45.70
33943;DHT22;66763;47.856;17.462;2023-04-24T05:28:13;19.20;45.70
33943;DHT22;66763;47.856;17.462;2023-04-24T05:30:40;19.20;45.60
33943;DHT22;66763;47.856;17.462;2023-04-24T05:33:06;19.20;45.70
33943;DHT22;66763;47.856;17.462;2023-04-24T05:35:31;19.20;45.60
33943;DHT22;66763;47.856;17.462;2023-04-24T05:37:57;19.20;45.70
33943;DHT22;66763;47.856;17.462;2023-04-24T05:40:22;19.20;45.70
33943;DHT22;66763;47.856;17.462;2023-04-24T05:42:48;19.20;45.60
33943;DHT22;66763;47.856;17.462;2023-04-24T05:45:13;19.10;45.60
33943;DHT22;66763;47.856;17.462;2023-04-24T05:47:42;19.20;45.60
33943;DHT22;66763;47.856;17.462;2023-04-24T05:50:09;19.20;45.70
33943;DHT22;66763;47.856;17.462;2023-04-24T05:52:34;19.20;45.70
33943;DHT22;66763;47.856;17.462;2023-04-24T05:55:00;19.20;45.60
33943;DHT22;66763;47.856;17.462;2023-04-24T05:57:26;19.20;45.70
33943;DHT22;66763;47.856;17.462;2023-04-24T05:59:51;19.20;45.70
33943;DHT22;66763;47.856;17.462;2023-04-24T06:02:17;19.20;45.60
33943;DHT22;66763;47.856;17.462;2023-04-24T06:04:42;19.20;45.70
33943;DHT22;66763;47.856;17.462;2023-04-24T06:07:10;19.10;45.50
33943;DHT22;66763;47.856;17.462;2023-04-24T06:09:35;19.20;45.60
33943;DHT22;66763;47.856;17.462;2023-04-24T06:12:01;19.20;45.60
33943;DHT22;66763;47.856;17.462;2023-04-24T06:14:27;19.20;45.60
33943;DHT22;66763;47.856;17.462;2023-04-24T06:16:53;19.20;46.20
33943;DHT22;66763;47.856;17.462;2023-04-24T06:19:18;19.20;45.60
33943;DHT22;66763;47.856;17.462;2023-04-24T06:21:44;19.20;45.60
33943;DHT22;66763;47.856;17.462;2023-04-24T06:24:09;19.20;45.60
33943;DHT22;66763;47.856;17.462;2023-04-24T06:26:35;19.20;45.70
33943;DHT22;66763;47.856;17.462;2023-04-24T06:29:01;19.20;45.60
33943;DHT22;66763;47.856;17.462;2023-04-24T06:31:27;19.20;45.60
33943;DHT22;66763;47.856;17.462;2023-04-24T06:33:52;19.20;45.70
33943;DHT22;66763;47.856;17.462;2023-04-24T06:36:18;19.20;45.70
33943;DHT22;66763;47.856;17.462;2023-04-24T06:38:43;19.20;45.70
33943;DHT22;66763;47.856;17.462;2023-04-24T06:41:09;19.20;45.70
33943;DHT22;66763;47.856;17.462;2023-04-24T06:43:35;19.20;45.80
33943;DHT22;66763;47.856;17.462;2023-04-24T06:46:00;19.20;45.70
33943;DHT22;66763;47.856;17.462;2023-04-24T06:48:27;19.20;45.80
33943;DHT22;66763;47.856;17.462;2023-04-24T06:50:53;19.20;45.80
33943;DHT22;66763;47.856;17.462;2023-04-24T06:53:18;19.20;45.80
33943;DHT22;66763;47.856;17.462;2023-04-24T06:55:44;19.20;45.80
33943;DHT22;66763;47.856;17.462;2023-04-24T06:58:12;19.20;45.80
33943;DHT22;66763;47.856;17.462;2023-04-24T07:00:38;19.20;45.80
33943;DHT22;66763;47.856;17.462;2023-04-24T07:03:03;19.20;45.80
33943;DHT22;66763;47.856;17.462;2023-04-24T07:05:31;19.20;45.80
33943;DHT22;66763;47.856;17.462;2023-04-24T07:07:56;19.20;45.80
33943;DHT22;66763;47.856;17.462;2023-04-24T07:10:23;19.20;45.80
33943;DHT22;66763;47.856;17.462;2023-04-24T07:12:49;19.20;45.80
33943;DHT22;66763;47.856;17.462;2023-04-24T07:15:15;19.20;45.80
33943;DHT22;66763;47.856;17.462;2023-04-24T07:17:41;19.20;45.80
33943;DHT22;66763;47.856;17.462;2023-04-24T07:20:10;19.20;45.80
33943;DHT22;66763;47.856;17.462;2023-04-24T07:22:36;19.20;45.80
33943;DHT22;66763;47.856;17.462;2023-04-24T07:25:01;19.20;45.80
33943;DHT22;66763;47.856;17.462;2023-04-24T07:27:27;19.20;45.80
33943;DHT22;66763;47.856;17.462;2023-04-24T07:29:53;19.20;45.90
33943;DHT22;66763;47.856;17.462;2023-04-24T07:32:18;19.20;45.90
33943;DHT22;66763;47.856;17.462;2023-04-24T07:34:44;19.20;45.80
33943;DHT22;66763;47.856;17.462;2023-04-24T07:37:09;19.20;45.80
33943;DHT22;66763;47.856;17.462;2023-04-24T07:39:35;19.20;45.80
33943;DHT22;66763;47.856;17.462;2023-04-24T07:42:00;19.20;45.80
33943;DHT22;66763;47.856;17.462;2023-04-24T07:44:26;19.20;45.90
33943;DHT22;66763;47.856;17.462;2023-04-24T07:46:52;19.20;45.90
33943;DHT22;66763;47.856;17.462;2023-04-24T07:49:17;19.20;45.80
33943;DHT22;66763;47.856;17.462;2023-04-24T07:51:43;19.20;45.80
33943;DHT22;66763;47.856;17.462;2023-04-24T07:54:08;19.20;45.80
33943;DHT22;66763;47.856;17.462;2023-04-24T07:56:34;19.20;45.80
33943;DHT22;66763;47.856;17.462;2023-04-24T07:59:04;19.20;45.80
33943;DHT22;66763;47.856;17.462;2023-04-24T08:01:29;19.20;45.80
33943;DHT22;66763;47.856;17.462;2023-04-24T08:03:55;19.20;45.80
33943;DHT22;66763;47.856;17.462;2023-04-24T08:06:21;19.20;45.80
33943;DHT22;66763;47.856;17.462;2023-04-24T08:08:46;19.20;45.90
33943;DHT22;66763;47.856;17.462;2023-04-24T08:11:12;19.20;45.90
33943;DHT22;66763;47.856;17.462;2023-04-24T08:13:37;19.20;45.80
33943;DHT22;66763;47.856;17.462;2023-04-24T08:16:03;19.20;45.80
33943;DHT22;66763;47.856;17.462;2023-04-24T08:18:28;19.20;45.90
33943;DHT22;66763;47.856;17.462;2023-04-24T08:20:54;19.20;45.90
33943;DHT22;66763;47.856;17.462;2023-04-24T08:23:19;19.20;45.90
33943;DHT22;66763;47.856;17.462;2023-04-24T08:25:45;19.20;45.90
33943;DHT22;66763;47.856;17.462;2023-04-24T08:28:10;19.30;45.90
33943;DHT22;66763;47.856;17.462;2023-04-24T08:30:36;19.20;45.80
33943;DHT22;66763;47.856;17.462;2023-04-24T08:33:02;19.20;45.90
33943;DHT22;66763;47.856;17.462;2023-04-24T08:35:27;19.20;45.90
33943;DHT22;66763;47.856;17.462;2023-04-24T08:37:53;19.20;45.90
33943;DHT22;66763;47.856;17.462;2023-04-24T08:40:19;19.20;45.90
33943;DHT22;66763;47.856;17.462;2023-04-24T08:42:47;19.20;45.90
33943;DHT22;66763;47.856;17.462;2023-04-24T08:45:13;19.20;46.00
33943;DHT22;66763;47.856;17.462;2023-04-24T08:47:39;19.20;45.90
33943;DHT22;66763;47.856;17.462;2023-04-24T08:50:05;19.20;45.90
33943;DHT22;66763;47.856;17.462;2023-04-24T08:52:34;19.20;45.90
33943;DHT22;66763;47.856;17.462;2023-04-24T08:55:00;19.20;45.90
33943;DHT22;66763;47.856;17.462;2023-04-24T08:57:26;19.20;46.00
33943;DHT22;66763;47.856;17.462;2023-04-24T08:59:53;19.20;45.90
33943;DHT22;66763;47.856;17.462;2023-04-24T09:02:18;19.20;45.90
33943;DHT22;66763;47.856;17.462;2023-04-24T09:04:45;19.20;46.00
33943;DHT22;66763;47.856;17.462;2023-04-24T09:07:11;19.20;45.90
33943;DHT22;66763;47.856;17.462;2023-04-24T09:09:37;19.20;45.90
33943;DHT22;66763;47.856;17.462;2023-04-24T09:12:03;19.20;45.90
33943;DHT22;66763;47.856;17.462;2023-04-24T09:14:29;19.20;45.90
33943;DHT22;66763;47.856;17.462;2023-04-24T09:16:56;19.20;45.90
33943;DHT22;66763;47.856;17.462;2023-04-24T09:19:22;19.20;45.90
33943;DHT22;66763;47.856;17.462;2023-04-24T09:21:47;19.20;45.90
33943;DHT22;66763;47.856;17.462;2023-04-24T09:24:17;19.20;45.90
33943;DHT22;66763;47.856;17.462;2023-04-24T09:26:43;19.30;45.90
33943;DHT22;66763;47.856;17.462;2023-04-24T09:29:13;19.20;45.90
33943;DHT22;66763;47.856;17.462;2023-04-24T09:31:39;19.20;45.90
33943;DHT22;66763;47.856;17.462;2023-04-24T09:34:04;19.30;45.90
33943;DHT22;66763;47.856;17.462;2023-04-24T09:36:36;19.20;45.90
33943;DHT22;66763;47.856;17.462;2023-04-24T09:39:04;19.20;45.90
33943;DHT22;66763;47.856;17.462;2023-04-24T09:41:31;19.20;45.90
33943;DHT22;66763;47.856;17.462;2023-04-24T09:43:58;19.20;45.90
33943;DHT22;66763;47.856;17.462;2023-04-24T09:46:30;19.20;45.90
33943;DHT22;66763;47.856;17.462;2023-04-24T09:48:56;19.20;45.90
33943;DHT22;66763;47.856;17.462;2023-04-24T09:51:35;19.20;46.00
33943;DHT22;66763;47.856;17.462;2023-04-24T09:54:02;19.20;46.00
33943;DHT22;66763;47.856;17.462;2023-04-24T09:56:29;19.20;46.00
33943;DHT22;66763;47.856;17.462;2023-04-24T09:59:03;19.20;46.00
33943;DHT22;66763;47.856;17.462;2023-04-24T10:01:32;19.20;46.00
33943;DHT22;66763;47.856;17.462;2023-04-24T10:03:58;19.20;46.00
33943;DHT22;66763;47.856;17.462;2023-04-24T10:06:29;19.20;46.00
33943;DHT22;66763;47.856;17.462;2023-04-24T10:08:56;19.20;46.00
33943;DHT22;66763;47.856;17.462;2023-04-24T10:11:24;19.20;46.00
33943;DHT22;66763;47.856;17.462;2023-04-24T10:13:51;19.20;46.00
33943;DHT22;66763;47.856;17.462;2023-04-24T10:16:16;19.20;46.00
33943;DHT22;66763;47.856;17.462;2023-04-24T10:18:42;19.20;46.00
33943;DHT22;66763;47.856;17.462;2023-04-24T10:21:08;19.20;46.00
33943;DHT22;66763;47.856;17.462;2023-04-24T10:23:34;19.20;46.00
33943;DHT22;66763;47.856;17.462;2023-04-24T10:26:00;19.20;46.00
33943;DHT22;66763;47.856;17.462;2023-04-24T10:28:26;19.20;46.10
33943;DHT22;66763;47.856;17.462;2023-04-24T10:30:52;19.20;46.10
33943;DHT22;66763;47.856;17.462;2023-04-24T10:33:20;19.20;46.10
33943;DHT22;66763;47.856;17.462;2023-04-24T10:35:46;19.20;46.10
33943;DHT22;66763;47.856;17.462;2023-04-24T10:38:15;19.20;46.10
33943;DHT22;66763;47.856;17.462;2023-04-24T10:40:42;19.20;46.20
33943;DHT22;66763;47.856;17.462;2023-04-24T10:43:08;19.20;46.10
33943;DHT22;66763;47.856;17.462;2023-04-24T10:45:36;19.20;46.10
33943;DHT22;66763;47.856;17.462;2023-04-24T10:48:06;19.20;46.10
33943;DHT22;66763;47.856;17.462;2023-04-24T10:50:43;19.20;46.20
33943;DHT22;66763;47.856;17.462;2023-04-24T10:53:19;19.20;46.20
33943;DHT22;66763;47.856;17.462;2023-04-24T10:55:46;19.20;46.20
33943;DHT22;66763;47.856;17.462;2023-04-24T10:58:12;19.10;46.10
33943;DHT22;66763;47.856;17.462;2023-04-24T11:00:38;19.10;46.20
33943;DHT22;66763;47.856;17.462;2023-04-24T11:03:04;19.20;46.20
33943;DHT22;66763;47.856;17.462;2023-04-24T11:06:04;19.10;46.10
33943;DHT22;66763;47.856;17.462;2023-04-24T11:08:26;19.20;46.20
33943;DHT22;66763;47.856;17.462;2023-04-24T11:13:27;19.20;46.30
33943;DHT22;66763;47.856;17.462;2023-04-24T11:18:45;19.10;46.20
33943;DHT22;66763;47.856;17.462;2023-04-24T11:21:17;19.10;46.20
33943;DHT22;66763;47.856;17.462;2023-04-24T11:23:42;19.10;46.20
33943;DHT22;66763;47.856;17.462;2023-04-24T11:26:18;19.20;46.30
33943;DHT22;66763;47.856;17.462;2023-04-24T11:28:44;19.10;46.20
33943;DHT22;66763;47.856;17.462;2023-04-24T11:31:44;19.10;46.20
33943;DHT22;66763;47.856;17.462;2023-04-24T11:36:34;19.10;46.30
33943;DHT22;66763;47.856;17.462;2023-04-24T11:39:00;19.10;46.30
33943;DHT22;66763;47.856;17.462;2023-04-24T11:41:26;19.10;46.30
33943;DHT22;66763;47.856;17.462;2023-04-24T11:43:52;19.10;46.30
33943;DHT22;66763;47.856;17.462;2023-04-24T11:46:20;19.10;46.30
33943;DHT22;66763;47.856;17.462;2023-04-24T11:48:46;19.10;46.30
33943;DHT22;66763;47.856;17.462;2023-04-24T11:51:12;19.10;46.30
33943;DHT22;66763;47.856;17.462;2023-04-24T11:53:37;19.10;46.30
33943;DHT22;66763;47.856;17.462;2023-04-24T11:56:03;19.10;46.30
33943;DHT22;66763;47.856;17.462;2023-04-24T11:58:34;19.10;46.30
33943;DHT22;66763;47.856;17.462;2023-04-24T12:00:59;19.10;46.30
33943;DHT22;66763;47.856;17.462;2023-04-24T12:03:26;19.10;46.30
33943;DHT22;66763;47.856;17.462;2023-04-24T12:05:52;19.10;46.30
33943;DHT22;66763;47.856;17.462;2023-04-24T12:08:27;19.10;46.30
33943;DHT22;66763;47.856;17.462;2023-04-24T12:10:52;19.10;46.20
33943;DHT22;66763;47.856;17.462;2023-04-24T12:13:18;19.10;46.20
33943;DHT22;66763;47.856;17.462;2023-04-24T12:15:43;19.10;46.90
33943;DHT22;66763;47.856;17.462;2023-04-24T12:18:11;19.10;46.10
33943;DHT22;66763;47.856;17.462;2023-04-24T12:20:37;19.10;46.10
33943;DHT22;66763;47.856;17.462;2023-04-24T12:23:03;19.10;46.20
33943;DHT22;66763;47.856;17.462;2023-04-24T12:25:32;19.10;46.10
33943;DHT22;66763;47.856;17.462;2023-04-24T12:28:08;19.10;46.00
33943;DHT22;66763;47.856;17.462;2023-04-24T12:30:41;19.10;45.90
33943;DHT22;66763;47.856;17.462;2023-04-24T12:33:06;19.10;45.90
33943;DHT22;66763;47.856;17.462;2023-04-24T12:35:32;19.10;45.90
33943;DHT22;66763;47.856;17.462;2023-04-24T12:38:05;19.10;45.90
33943;DHT22;66763;47.856;17.462;2023-04-24T12:40:31;19.10;45.80
33943;DHT22;66763;47.856;17.462;2023-04-24T12:42:57;19.20;45.90
33943;DHT22;66763;47.856;17.462;2023-04-24T12:45:22;19.20;45.90
33943;DHT22;66763;47.856;17.462;2023-04-24T12:47:50;19.20;45.90
33943;DHT22;66763;47.856;17.462;2023-04-24T12:50:16;19.20;46.00
33943;DHT22;66763;47.856;17.462;2023-04-24T12:52:42;19.10;45.90
33943;DHT22;66763;47.856;17.462;2023-04-24T12:55:08;19.20;45.90
33943;DHT22;66763;47.856;17.462;2023-04-24T12:57:34;19.20;45.90
33943;DHT22;66763;47.856;17.462;2023-04-24T13:00:00;19.20;46.00
33943;DHT22;66763;47.856;17.462;2023-04-24T13:02:27;19.20;46.00
33943;DHT22;66763;47.856;17.462;2023-04-24T13:04:52;19.20;45.90
33943;DHT22;66763;47.856;17.462;2023-04-24T13:07:18;19.20;46.00
33943;DHT22;66763;47.856;17.462;2023-04-24T13:09:44;19.20;45.90
33943;DHT22;66763;47.856;17.462;2023-04-24T13:12:10;19.20;45.90
33943;DHT22;66763;47.856;17.462;2023-04-24T13:14:36;19.10;45.80
33943;DHT22;66763;47.856;17.462;2023-04-24T13:17:02;19.10;45.80
33943;DHT22;66763;47.856;17.462;2023-04-24T13:19:28;19.20;45.90
33943;DHT22;66763;47.856;17.462;2023-04-24T13:21:54;19.10;45.80
33943;DHT22;66763;47.856;17.462;2023-04-24T13:24:21;19.20;46.00
33943;DHT22;66763;47.856;17.462;2023-04-24T13:26:46;19.20;45.90
33943;DHT22;66763;47.856;17.462;2023-04-24T13:29:12;19.20;45.90
33943;DHT22;66763;47.856;17.462;2023-04-24T13:31:37;19.10;45.80
33943;DHT22;66763;47.856;17.462;2023-04-24T13:34:03;19.20;45.90
33943;DHT22;66763;47.856;17.462;2023-04-24T13:36:28;19.20;45.90
33943;DHT22;66763;47.856;17.462;2023-04-24T13:38:54;19.20;45.90
33943;DHT22;66763;47.856;17.462;2023-04-24T13:41:19;19.20;46.00
33943;DHT22;66763;47.856;17.462;2023-04-24T13:43:45;19.10;45.90
33943;DHT22;66763;47.856;17.462;2023-04-24T13:46:10;19.10;45.90
33943;DHT22;66763;47.856;17.462;2023-04-24T13:48:36;19.20;46.00
33943;DHT22;66763;47.856;17.462;2023-04-24T13:51:01;19.20;46.00
33943;DHT22;66763;47.856;17.462;2023-04-24T13:53:27;19.10;45.90
33943;DHT22;66763;47.856;17.462;2023-04-24T13:55:53;19.10;45.90
33943;DHT22;66763;47.856;17.462;2023-04-24T13:58:18;19.10;45.90
33943;DHT22;66763;47.856;17.462;2023-04-24T14:00:44;19.10;45.90
33943;DHT22;66763;47.856;17.462;2023-04-24T14:03:09;19.10;45.90
33943;DHT22;66763;47.856;17.462;2023-04-24T14:05:36;19.20;46.00
33943;DHT22;66763;47.856;17.462;2023-04-24T14:08:01;19.20;46.00
33943;DHT22;66763;47.856;17.462;2023-04-24T14:10:27;19.20;45.90
33943;DHT22;66763;47.856;17.462;2023-04-24T14:12:52;19.10;45.80
33943;DHT22;66763;47.856;17.462;2023-04-24T14:15:18;19.20;45.90
33943;DHT22;66763;47.856;17.462;2023-04-24T14:17:44;19.20;45.90
33943;DHT22;66763;47.856;17.462;2023-04-24T14:20:09;19.10;45.90
33943;DHT22;66763;47.856;17.462;2023-04-24T14:22:35;19.20;46.00
33943;DHT22;66763;47.856;17.462;2023-04-24T14:25:01;19.10;45.90
33943;DHT22;66763;47.856;17.462;2023-04-24T14:27:26;19.10;45.80
33943;DHT22;66763;47.856;17.462;2023-04-24T14:29:52;19.20;46.00
33943;DHT22;66763;47.856;17.462;2023-04-24T14:32:17;19.10;45.90
33943;DHT22;66763;47.856;17.462;2023-04-24T14:34:43;19.10;45.90
33943;DHT22;66763;47.856;17.462;2023-04-24T14:37:09;19.10;45.90
33943;DHT22;66763;47.856;17.462;2023-04-24T14:39:34;19.20;45.90
33943;DHT22;66763;47.856;17.462;2023-04-24T14:42:00;19.10;46.00
33943;DHT22;66763;47.856;17.462;2023-04-24T14:44:26;19.10;45.90
33943;DHT22;66763;47.856;17.462;2023-04-24T14:46:52;19.10;46.00
33943;DHT22;66763;47.856;17.462;2023-04-24T14:49:18;19.10;45.90
33943;DHT22;66763;47.856;17.462;2023-04-24T14:51:43;19.10;45.90
33943;DHT22;66763;47.856;17.462;2023-04-24T14:54:09;19.10;46.00
33943;DHT22;66763;47.856;17.462;2023-04-24T14:56:34;19.10;45.90
33943;DHT22;66763;47.856;17.462;2023-04-24T14:59:00;19.10;45.90
33943;DHT22;66763;47.856;17.462;2023-04-24T15:01:26;19.10;46.00
33943;DHT22;66763;47.856;17.462;2023-04-24T15:03:51;19.10;46.00
33943;DHT22;66763;47.856;17.462;2023-04-24T15:06:17;19.10;45.90
33943;DHT22;66763;47.856;17.462;2023-04-24T15:08:42;19.10;46.10
33943;DHT22;66763;47.856;17.462;2023-04-24T15:11:09;19.10;46.10
33943;DHT22;66763;47.856;17.462;2023-04-24T15:13:34;19.10;46.10
33943;DHT22;66763;47.856;17.462;2023-04-24T15:16:00;19.10;46.00